O'Leary, Canada
Current Conditions -  °F | °C
As of 7:00 AM on Sunday 23 Nov 2014 (Local Time) from CYQM Reporting Station
Overcast Overcast  
Wind Chill: 23°   Ceiling: 4000
Heat Index: 32°   Visibility: 15mi
Dew Point: 27°   Wind: 12mph
Humidity: 80%   Direction: 240°WSW
Pressure: 29.87"   Gusts: NA
Location:  46.7°N, 64.22°W
Report Text: CYQM 231100Z 24010KT 15SM BKN040 OVC120 M00/M03 A2987 RMK SC6AC2 SLP120
Loading
Personal Weather Stations






























Interactive Weather Map New forecast layout! Learn more

10-Day Weather Forecast

Advertisements
Track Severe Weather on mobile